Time;durP1;ratioP1;P1;durP2;ratioP2;P2;SDS_P1;SDS_P2;PMS_P1;PMS_P2;Temp;Humidity;BMP_temperature;BMP_pressure;BME280_temperature;BME280_humidity;BME280_pressure;Samples;Min_cycle;Max_cycle;Signal;HPM_P1;HPM_P2
2021/10/30 00:00:23;;;;;;;23.70;15.65;;;14.40;86.40;;;;;;5051685;28;20029;-70
2021/10/30 00:02:49;;;;;;;24.88;16.27;;;14.40;86.70;;;;;;5053209;28;20017;-70
2021/10/30 00:05:15;;;;;;;31.80;16.92;;;14.30;86.30;;;;;;5053179;28;20040;-70
2021/10/30 00:07:42;;;;;;;25.05;16.45;;;14.30;86.10;;;;;;5051757;28;20029;-70
2021/10/30 00:10:09;;;;;;;27.42;15.52;;;14.30;85.90;;;;;;5053106;28;20025;-70
2021/10/30 00:12:35;;;;;;;23.70;16.02;;;14.30;86.20;;;;;;5053178;28;20507;-69
2021/10/30 00:15:01;;;;;;;23.40;16.23;;;14.30;86.00;;;;;;5053102;28;20028;-69
2021/10/30 00:17:26;;;;;;;27.05;16.02;;;14.20;86.00;;;;;;5051599;28;20455;-70
2021/10/30 00:19:52;;;;;;;23.17;15.85;;;14.20;85.90;;;;;;5052851;28;20442;-69
2021/10/30 00:22:18;;;;;;;25.15;14.80;;;14.20;86.10;;;;;;5052553;28;20021;-69
2021/10/30 00:24:44;;;;;;;24.85;15.80;;;14.20;86.00;;;;;;5052840;28;20036;-70
2021/10/30 00:27:12;;;;;;;25.75;15.90;;;14.10;86.00;;;;;;5053073;28;20544;-69
2021/10/30 00:29:38;;;;;;;20.83;14.77;;;14.10;85.90;;;;;;5051698;28;20017;-72
2021/10/30 00:32:05;;;;;;;19.60;14.90;;;14.10;85.90;;;;;;5052692;28;20099;-70
2021/10/30 00:34:30;;;;;;;22.83;14.63;;;14.20;86.20;;;;;;5052777;28;20029;-70
2021/10/30 00:36:56;;;;;;;21.85;14.55;;;14.20;85.90;;;;;;5053169;28;20029;-69
2021/10/30 00:39:22;;;;;;;23.52;15.30;;;14.20;85.70;;;;;;5052773;28;20017;-69
2021/10/30 00:41:49;;;;;;;26.10;14.98;;;14.20;85.30;;;;;;5053207;28;20071;-70
2021/10/30 00:44:16;;;;;;;23.48;15.18;;;14.20;85.40;;;;;;5062266;28;20466;-70
2021/10/30 00:46:43;;;;;;;24.30;14.68;;;14.20;85.20;;;;;;5069368;28;20045;-73
2021/10/30 00:49:11;;;;;;;20.90;14.18;;;14.20;85.20;;;;;;5059938;28;20033;-70
2021/10/30 00:51:37;;;;;;;24.80;14.43;;;14.20;85.20;;;;;;5057602;28;20041;-70
2021/10/30 00:54:05;;;;;;;21.40;13.63;;;14.20;85.10;;;;;;5057278;28;20028;-69
2021/10/30 00:56:31;;;;;;;23.98;14.10;;;14.20;85.30;;;;;;5056990;28;20370;-71
2021/10/30 00:59:09;;;;;;;23.80;14.45;;;14.10;85.30;;;;;;5057147;28;20013;-69
2021/10/30 01:01:43;;;;;;;20.38;13.85;;;14.10;85.30;;;;;;5055417;28;20025;-70
2021/10/30 01:04:09;;;;;;;;;;;14.10;85.10;;;;;;5056258;28;20033;-69
2021/10/30 01:06:37;;;;;;;21.40;13.55;;;14.10;85.30;;;;;;5056936;28;19920;-69
2021/10/30 01:09:04;;;;;;;23.10;13.80;;;14.10;85.00;;;;;;5057136;28;20151;-71
2021/10/30 01:11:30;;;;;;;22.33;13.82;;;14.10;84.80;;;;;;5056707;28;20107;-70
2021/10/30 01:13:56;;;;;;;21.63;13.38;;;14.10;84.50;;;;;;5056858;28;20013;-70
2021/10/30 01:16:24;;;;;;;20.63;12.98;;;14.10;84.70;;;;;;5056777;28;20112;-71
2021/10/30 01:18:50;;;;;;;23.30;13.35;;;14.10;84.80;;;;;;5056929;28;20029;-70
2021/10/30 01:21:26;;;;;;;19.73;13.30;;;14.10;84.40;;;;;;5056997;28;20029;-70
2021/10/30 01:23:53;;;;;;;20.25;12.52;;;14.10;84.30;;;;;;5056390;28;20562;-71
2021/10/30 01:26:21;;;;;;;18.08;12.57;;;14.10;84.10;;;;;;5056469;28;20466;-71
2021/10/30 01:28:48;;;;;;;18.70;12.05;;;14.10;84.10;;;;;;5056425;28;20024;-73
2021/10/30 01:31:15;;;;;;;16.80;12.20;;;14.10;83.80;;;;;;5055016;28;20081;-71
2021/10/30 01:33:42;;;;;;;21.13;12.05;;;14.10;83.90;;;;;;5056169;28;20029;-71
2021/10/30 01:36:09;;;;;;;20.63;12.00;;;14.00;83.70;;;;;;5055120;28;20108;-72
2021/10/30 01:38:35;;;;;;;21.77;13.43;;;14.00;83.70;;;;;;5056193;28;20017;-72
2021/10/30 01:41:00;;;;;;;17.00;12.05;;;14.00;83.60;;;;;;5056051;28;20033;-69
2021/10/30 01:43:26;;;;;;;16.73;12.15;;;13.90;83.80;;;;;;5056084;28;20339;-69
2021/10/30 01:45:52;;;;;;;18.00;12.05;;;13.90;83.70;;;;;;5055542;28;20074;-70
2021/10/30 01:48:18;;;;;;;19.25;11.88;;;14.00;83.80;;;;;;5055769;28;20028;-71
2021/10/30 01:50:44;;;;;;;16.42;11.45;;;13.90;83.80;;;;;;5055492;28;20370;-72
2021/10/30 01:53:09;;;;;;;16.48;11.80;;;14.00;83.80;;;;;;5055597;28;20017;-72
2021/10/30 01:55:38;;;;;;;17.10;11.13;;;13.90;83.40;;;;;;5055402;28;20438;-70
2021/10/30 01:58:05;;;;;;;18.75;11.45;;;13.80;83.20;;;;;;5054021;28;20351;-70
2021/10/30 02:00:31;;;;;;;16.38;10.55;;;13.80;83.30;;;;;;5054788;28;20492;-71
2021/10/30 02:02:57;;;;;;;14.55;10.80;;;13.70;83.60;;;;;;5055451;28;20025;-71
2021/10/30 02:05:22;;;;;;;15.73;10.68;;;13.80;83.50;;;;;;5055496;28;20386;-70
2021/10/30 02:07:48;;;;;;;16.83;9.63;;;13.80;83.50;;;;;;5055272;28;20025;-68
2021/10/30 02:10:15;;;;;;;13.05;9.85;;;13.80;83.40;;;;;;5055116;28;20497;-70
2021/10/30 02:12:41;;;;;;;12.57;8.52;;;13.80;83.30;;;;;;5055206;28;20028;-69
2021/10/30 02:15:08;;;;;;;15.00;9.27;;;13.80;83.10;;;;;;5055314;28;20029;-70
2021/10/30 02:17:34;;;;;;;12.60;8.65;;;13.90;82.70;;;;;;5055513;28;20028;-69
2021/10/30 02:20:01;;;;;;;12.52;9.20;;;13.90;82.50;;;;;;5055149;28;20024;-70
2021/10/30 02:22:27;;;;;;;15.05;8.73;;;13.90;82.30;;;;;;5054898;28;20041;-70
2021/10/30 02:24:52;;;;;;;13.50;8.57;;;13.90;82.40;;;;;;5055322;28;20086;-69
2021/10/30 02:27:18;;;;;;;17.38;8.82;;;13.90;82.20;;;;;;5055298;28;20033;-71
2021/10/30 02:29:44;;;;;;;15.27;8.32;;;13.90;82.30;;;;;;5053942;28;20021;-71
2021/10/30 02:32:10;;;;;;;14.32;8.80;;;14.00;82.30;;;;;;5053744;28;20072;-71
2021/10/30 02:34:36;;;;;;;12.60;8.45;;;14.00;81.80;;;;;;5055200;28;20369;-72
2021/10/30 02:37:02;;;;;;;12.63;7.82;;;13.90;81.70;;;;;;5054902;28;20021;-71
2021/10/30 02:39:28;;;;;;;11.73;8.35;;;14.00;81.80;;;;;;5054784;28;20385;-71
2021/10/30 02:41:54;;;;;;;13.82;8.32;;;14.00;81.80;;;;;;5054677;28;20029;-70
2021/10/30 02:44:19;;;;;;;12.38;8.35;;;14.00;81.70;;;;;;5055212;28;20104;-69
2021/10/30 02:46:45;;;;;;;12.55;8.30;;;14.00;81.30;;;;;;5054514;28;20025;-69
2021/10/30 02:49:11;;;;;;;12.63;8.32;;;14.10;81.20;;;;;;5054608;28;20169;-69
2021/10/30 02:51:37;;;;;;;14.25;8.35;;;14.10;81.10;;;;;;5054369;28;20021;-71
2021/10/30 02:54:03;;;;;;;15.00;8.57;;;14.10;81.00;;;;;;5054617;28;20031;-71
2021/10/30 02:56:28;;;;;;;16.98;9.07;;;14.20;80.70;;;;;;5054557;28;20187;-73
2021/10/30 02:58:54;;;;;;;12.20;7.97;;;14.20;80.70;;;;;;5054398;28;20478;-69
2021/10/30 03:01:20;;;;;;;11.85;8.35;;;14.20;80.40;;;;;;5054452;28;20028;-70
2021/10/30 03:03:46;;;;;;;11.88;7.63;;;14.20;80.20;;;;;;5054353;28;20075;-69
2021/10/30 03:06:12;;;;;;;14.50;8.18;;;14.20;80.20;;;;;;5054235;28;20075;-70
2021/10/30 03:08:38;;;;;;;13.98;8.32;;;14.20;80.10;;;;;;5054244;28;20453;-68
2021/10/30 03:11:03;;;;;;;13.32;7.85;;;14.20;80.00;;;;;;5054354;28;20079;-68
2021/10/30 03:13:29;;;;;;;12.52;8.52;;;14.20;80.00;;;;;;5053461;28;20049;-71
2021/10/30 03:15:55;;;;;;;12.90;8.18;;;14.20;79.90;;;;;;5054175;28;20063;-70
2021/10/30 03:18:22;;;;;;;15.23;8.18;;;14.20;79.90;;;;;;5054213;28;20021;-70
2021/10/30 03:20:48;;;;;;;12.73;8.30;;;14.20;79.70;;;;;;5054103;28;20355;-68
2021/10/30 03:23:14;;;;;;;12.18;8.13;;;14.20;79.80;;;;;;5054075;28;20124;-69
2021/10/30 03:25:40;;;;;;;11.77;8.45;;;14.20;80.10;;;;;;5053899;28;20068;-70
2021/10/30 03:28:06;;;;;;;11.48;8.32;;;14.20;79.80;;;;;;5053968;28;20419;-70
2021/10/30 03:30:32;;;;;;;12.52;8.00;;;14.20;79.60;;;;;;5053704;28;20029;-70
2021/10/30 03:32:59;;;;;;;13.98;8.25;;;14.20;79.60;;;;;;5053906;28;20029;-69
2021/10/30 03:35:24;;;;;;;13.70;8.10;;;14.20;79.50;;;;;;5053805;28;20021;-70
2021/10/30 03:37:50;;;;;;;15.75;8.43;;;14.20;79.50;;;;;;5053768;28;20021;-70
2021/10/30 03:40:16;;;;;;;10.55;7.63;;;14.20;79.50;;;;;;5053904;28;20027;-71
2021/10/30 03:42:43;;;;;;;13.13;8.10;;;14.20;79.60;;;;;;5052241;28;20075;-69
2021/10/30 03:45:09;;;;;;;10.85;7.97;;;14.30;79.60;;;;;;5053607;28;20028;-71
2021/10/30 03:47:35;;;;;;;14.32;8.23;;;14.30;79.30;;;;;;5053582;28;20065;-69
2021/10/30 03:50:01;;;;;;;13.68;8.00;;;14.30;79.30;;;;;;5053325;28;20091;-74
2021/10/30 03:52:27;;;;;;;12.23;7.90;;;14.30;79.20;;;;;;5053537;28;20032;-72
2021/10/30 03:54:53;;;;;;;12.45;8.48;;;14.20;79.00;;;;;;5053441;28;20093;-70
2021/10/30 03:57:20;;;;;;;13.40;8.20;;;14.20;79.10;;;;;;5053449;28;20033;-70
2021/10/30 03:59:46;;;;;;;13.20;7.72;;;14.20;79.20;;;;;;5053541;28;20009;-70
2021/10/30 04:02:12;;;;;;;13.27;8.38;;;14.20;79.00;;;;;;5053396;28;20025;-69
2021/10/30 04:04:38;;;;;;;13.77;8.15;;;14.20;78.80;;;;;;5052140;28;20031;-72
2021/10/30 04:07:04;;;;;;;12.80;8.23;;;14.20;78.90;;;;;;5053245;28;20025;-69
2021/10/30 04:09:30;;;;;;;15.55;8.38;;;14.30;79.00;;;;;;5053374;28;20158;-70
2021/10/30 04:11:55;;;;;;;16.75;8.30;;;14.30;78.90;;;;;;5053224;28;20533;-72
2021/10/30 04:14:22;;;;;;;15.40;8.63;;;14.30;78.80;;;;;;5053274;28;20029;-69
2021/10/30 04:16:48;;;;;;;11.27;8.02;;;14.20;78.70;;;;;;5053227;28;20110;-69
2021/10/30 04:19:14;;;;;;;13.07;8.40;;;14.20;78.70;;;;;;5053057;28;20029;-70
2021/10/30 04:21:41;;;;;;;13.82;8.32;;;14.20;78.80;;;;;;5052874;28;20032;-69
2021/10/30 04:24:07;;;;;;;13.48;7.95;;;14.20;78.80;;;;;;5052509;28;20060;-68
2021/10/30 04:26:33;;;;;;;12.02;8.02;;;14.20;78.70;;;;;;5052941;28;20029;-69
2021/10/30 04:29:00;;;;;;;13.05;8.15;;;14.20;78.70;;;;;;5053011;28;20110;-70
2021/10/30 04:31:28;;;;;;;12.52;7.72;;;14.20;78.40;;;;;;5053115;28;20106;-69
2021/10/30 04:33:58;;;;;;;14.48;8.35;;;14.20;78.40;;;;;;5052816;28;20021;-69
2021/10/30 04:36:27;;;;;;;14.45;8.30;;;14.20;78.60;;;;;;5052682;28;20386;-69
2021/10/30 04:38:54;;;;;;;12.02;8.30;;;14.10;78.50;;;;;;5052799;28;20108;-70
2021/10/30 04:41:19;;;;;;;12.18;8.02;;;14.10;78.90;;;;;;5052599;28;20078;-70
2021/10/30 04:43:46;;;;;;;13.32;8.48;;;14.10;78.80;;;;;;5052835;28;20033;-70
2021/10/30 04:46:16;;;;;;;12.55;8.52;;;14.10;78.90;;;;;;5052570;28;20025;-69
2021/10/30 04:48:43;;;;;;;13.82;7.88;;;14.00;78.80;;;;;;5052774;28;20033;-68
2021/10/30 04:51:08;;;;;;;11.68;7.85;;;14.00;78.90;;;;;;5051264;28;20025;-68
2021/10/30 04:53:36;;;;;;;13.85;8.13;;;14.00;78.90;;;;;;5052710;28;20462;-69
2021/10/30 04:56:02;;;;;;;15.13;8.60;;;14.00;78.80;;;;;;5052678;28;20466;-70
2021/10/30 04:58:28;;;;;;;11.93;8.27;;;14.00;79.00;;;;;;5052611;28;20139;-69
2021/10/30 05:00:54;;;;;;;12.80;8.75;;;13.90;78.80;;;;;;5051083;28;20231;-69
2021/10/30 05:03:21;;;;;;;12.35;8.40;;;13.90;78.90;;;;;;5052932;28;20592;-68
2021/10/30 05:05:47;;;;;;;13.20;7.97;;;13.90;78.90;;;;;;5052667;28;20084;-69
2021/10/30 05:08:13;;;;;;;14.07;8.60;;;13.80;78.90;;;;;;5052580;28;20037;-69
2021/10/30 05:10:39;;;;;;;16.20;9.00;;;13.80;78.90;;;;;;5052437;28;20049;-72
2021/10/30 05:13:04;;;;;;;14.77;8.90;;;13.80;79.00;;;;;;5052606;28;20029;-69
2021/10/30 05:15:32;;;;;;;10.32;7.65;;;13.80;79.10;;;;;;5052602;28;20017;-71
2021/10/30 05:17:58;;;;;;;15.27;9.02;;;13.70;78.90;;;;;;5052498;28;20462;-70
2021/10/30 05:20:23;;;;;;;13.50;8.70;;;13.70;78.90;;;;;;5052473;28;20044;-69
2021/10/30 05:22:49;;;;;;;12.85;8.95;;;13.60;78.90;;;;;;5052313;28;20045;-69
2021/10/30 05:25:15;;;;;;;12.75;8.50;;;13.60;78.90;;;;;;5052435;28;20036;-69
2021/10/30 05:27:41;;;;;;;13.18;7.82;;;13.50;78.80;;;;;;5052542;28;20136;-68
2021/10/30 05:30:07;;;;;;;15.68;8.35;;;13.50;78.90;;;;;;5052297;28;20029;-70
2021/10/30 05:32:33;;;;;;;14.98;9.85;;;13.50;79.20;;;;;;5052203;28;20453;-69
2021/10/30 05:34:58;;;;;;;13.95;7.97;;;13.40;79.20;;;;;;5052324;28;20100;-69
2021/10/30 05:37:24;;;;;;;14.02;8.25;;;13.40;79.10;;;;;;5055157;28;20053;-69
2021/10/30 05:39:50;;;;;;;13.68;8.18;;;13.40;79.00;;;;;;5056125;28;20028;-69
2021/10/30 05:42:17;;;;;;;12.85;8.48;;;13.40;79.20;;;;;;5055901;28;20104;-68
2021/10/30 05:44:43;;;;;;;13.90;7.82;;;13.40;79.30;;;;;;5055989;28;20025;-69
2021/10/30 05:47:10;;;;;;;12.68;8.02;;;13.40;79.20;;;;;;5055729;28;20047;-69
2021/10/30 05:49:41;;;;;;;15.15;8.43;;;13.30;79.10;;;;;;5055495;28;20024;-69
2021/10/30 05:52:08;;;;;;;15.20;8.93;;;13.30;79.10;;;;;;5055337;28;20043;-69
2021/10/30 05:54:34;;;;;;;14.43;9.30;;;13.30;79.00;;;;;;5055511;28;20399;-70
2021/10/30 05:57:00;;;;;;;14.25;9.45;;;13.30;79.30;;;;;;5055571;28;20032;-71
2021/10/30 05:59:27;;;;;;;15.23;9.55;;;13.30;79.40;;;;;;5055435;28;20029;-71
2021/10/30 06:01:53;;;;;;;13.23;9.32;;;13.30;79.50;;;;;;5055319;28;20052;-71
2021/10/30 06:04:18;;;;;;;18.52;10.23;;;13.30;79.50;;;;;;5055165;28;20059;-70
2021/10/30 06:06:44;;;;;;;15.93;11.30;;;13.30;79.70;;;;;;5055243;28;20024;-70
2021/10/30 06:09:11;;;;;;;16.55;10.55;;;13.30;79.60;;;;;;5055136;28;20025;-69
2021/10/30 06:11:37;;;;;;;16.20;10.75;;;13.30;79.60;;;;;;5054756;28;20025;-71
2021/10/30 06:14:05;;;;;;;17.05;10.77;;;13.30;79.80;;;;;;5053538;28;20490;-70
2021/10/30 06:16:30;;;;;;;26.35;11.55;;;13.30;79.90;;;;;;5055178;28;20115;-68
2021/10/30 06:18:56;;;;;;;18.55;10.68;;;13.30;80.00;;;;;;5054989;28;20049;-69
2021/10/30 06:21:22;;;;;;;20.27;11.32;;;13.30;80.00;;;;;;5055230;28;20021;-69
2021/10/30 06:23:49;;;;;;;19.70;11.75;;;13.30;80.20;;;;;;5054776;28;20139;-69
2021/10/30 06:26:16;;;;;;;16.98;11.93;;;13.20;80.10;;;;;;5055382;28;20025;-71
2021/10/30 06:28:42;;;;;;;20.10;12.15;;;13.20;80.00;;;;;;5054736;28;20040;-70
2021/10/30 06:31:08;;;;;;;20.80;13.18;;;13.30;80.30;;;;;;5054631;28;20021;-72
2021/10/30 06:33:33;;;;;;;19.10;13.40;;;13.30;80.40;;;;;;5054730;28;20029;-71
2021/10/30 06:35:59;;;;;;;19.80;12.90;;;13.20;80.20;;;;;;5054537;28;20133;-71
2021/10/30 06:38:25;;;;;;;20.52;12.60;;;13.30;80.20;;;;;;5053358;28;20098;-72
2021/10/30 06:40:50;;;;;;;20.98;12.23;;;13.30;80.00;;;;;;5054460;28;20018;-69
2021/10/30 06:43:16;;;;;;;17.58;10.80;;;13.30;80.00;;;;;;5054510;28;20544;-71
2021/10/30 06:45:42;;;;;;;19.60;12.45;;;13.30;80.10;;;;;;5054282;28;20085;-69
2021/10/30 06:48:08;;;;;;;21.33;12.10;;;13.40;79.80;;;;;;5054154;28;20466;-69
2021/10/30 06:50:34;;;;;;;19.25;11.50;;;13.50;80.20;;;;;;5054186;28;20029;-70
2021/10/30 06:52:59;;;;;;;19.45;11.65;;;13.60;79.70;;;;;;5054108;28;20090;-70
2021/10/30 06:55:25;;;;;;;17.42;11.50;;;13.70;79.40;;;;;;5054023;28;20049;-70
2021/10/30 06:57:51;;;;;;;17.08;11.38;;;13.70;79.00;;;;;;5053927;28;20075;-72
2021/10/30 07:00:18;;;;;;;16.15;11.38;;;13.80;79.40;;;;;;5054182;28;20028;-71
2021/10/30 07:02:45;;;;;;;20.40;11.63;;;13.90;78.70;;;;;;5054016;28;20143;-69
2021/10/30 07:05:11;;;;;;;16.15;11.55;;;14.00;78.40;;;;;;5054080;28;20078;-70
2021/10/30 07:07:36;;;;;;;19.80;11.40;;;14.00;77.70;;;;;;5053813;28;20401;-71
2021/10/30 07:10:04;;;;;;;18.10;12.45;;;14.10;77.90;;;;;;5053809;28;20025;-74
2021/10/30 07:12:32;;;;;;;21.45;11.63;;;14.10;77.90;;;;;;5054288;28;20478;-71
2021/10/30 07:14:58;;;;;;;24.13;13.00;;;14.10;77.50;;;;;;5038058;28;20017;-71
2021/10/30 07:17:24;;;;;;;18.95;11.82;;;14.20;77.50;;;;;;5033155;28;20029;-71
2021/10/30 07:19:50;;;;;;;20.55;12.23;;;14.30;77.40;;;;;;5033659;28;20335;-72
2021/10/30 07:22:17;;;;;;;18.52;12.55;;;14.40;77.30;;;;;;5033295;28;20036;-70
2021/10/30 07:24:43;;;;;;;19.88;12.27;;;14.60;77.20;;;;;;5033978;28;20056;-70
2021/10/30 07:27:10;;;;;;;18.23;11.57;;;14.60;76.30;;;;;;5033631;28;20120;-70
2021/10/30 07:29:36;;;;;;;20.92;11.93;;;14.60;76.50;;;;;;5033750;28;20036;-77
2021/10/30 07:32:02;;;;;;;16.27;11.27;;;14.70;76.50;;;;;;5033783;28;20029;-70
2021/10/30 07:34:28;;;;;;;20.05;11.80;;;14.80;76.30;;;;;;5033745;28;20025;-75
2021/10/30 07:36:54;;;;;;;19.05;12.05;;;14.80;76.00;;;;;;5033688;28;20032;-69
2021/10/30 07:39:20;;;;;;;21.27;12.65;;;14.80;75.80;;;;;;5033400;28;20045;-71
2021/10/30 07:41:47;;;;;;;27.13;15.13;;;14.80;75.50;;;;;;5033304;28;20025;-70
2021/10/30 07:44:13;;;;;;;22.80;12.55;;;14.80;75.60;;;;;;5033188;28;20491;-72
2021/10/30 07:46:39;;;;;;;18.05;12.02;;;14.80;75.50;;;;;;5033135;28;20022;-69
2021/10/30 07:49:06;;;;;;;16.33;12.13;;;14.80;75.40;;;;;;5033121;28;20033;-73
2021/10/30 07:51:32;;;;;;;20.85;12.55;;;14.80;75.80;;;;;;5033213;28;20057;-70
2021/10/30 07:53:58;;;;;;;20.20;12.35;;;14.80;75.40;;;;;;5047654;28;20127;-68
2021/10/30 07:56:23;;;;;;;19.40;11.52;;;14.90;75.20;;;;;;5051044;28;20422;-70
2021/10/30 07:58:49;;;;;;;18.75;11.93;;;14.90;75.00;;;;;;5034981;28;20056;-69
2021/10/30 08:01:16;;;;;;;20.48;11.18;;;14.90;75.00;;;;;;5033025;28;20026;-83
2021/10/30 08:03:43;;;;;;;21.95;12.32;;;14.90;74.70;;;;;;5033320;28;20049;-75
2021/10/30 08:06:10;;;;;;;20.52;12.25;;;15.00;74.60;;;;;;5033096;28;20040;-81
2021/10/30 08:08:35;;;;;;;15.48;10.80;;;15.10;74.60;;;;;;5032688;28;20029;-73
2021/10/30 08:11:02;;;;;;;16.83;11.02;;;15.10;74.20;;;;;;5032447;28;20083;-70
2021/10/30 08:13:28;;;;;;;18.90;11.57;;;15.10;73.90;;;;;;5035350;28;20033;-79
2021/10/30 08:15:55;;;;;;;15.60;10.43;;;15.20;73.60;;;;;;5032804;28;20096;-74
2021/10/30 08:18:21;;;;;;;17.00;10.40;;;15.20;73.40;;;;;;5032672;28;20108;-74
2021/10/30 08:20:47;;;;;;;16.73;10.13;;;15.20;72.90;;;;;;5032959;28;20064;-72
2021/10/30 08:23:12;;;;;;;16.98;10.95;;;15.20;72.90;;;;;;5032337;28;20155;-77
2021/10/30 08:25:38;;;;;;;16.90;10.55;;;15.30;72.70;;;;;;5037608;28;20032;-78
2021/10/30 08:28:04;;;;;;;17.48;11.02;;;15.30;72.40;;;;;;5032400;28;20048;-71
2021/10/30 08:30:30;;;;;;;17.92;11.18;;;15.40;71.90;;;;;;5032501;28;20115;-70
2021/10/30 08:32:56;;;;;;;14.45;10.27;;;15.40;71.70;;;;;;5032858;28;20033;-74
2021/10/30 08:35:22;;;;;;;17.67;10.85;;;15.40;71.30;;;;;;5032930;28;20036;-75
2021/10/30 08:37:49;;;;;;;17.70;10.88;;;15.50;71.10;;;;;;5032800;28;20048;-74
2021/10/30 08:40:17;;;;;;;15.23;11.23;;;15.50;71.00;;;;;;5032653;28;20033;-72
2021/10/30 08:42:50;;;;;;;17.67;11.55;;;15.60;71.20;;;;;;5032523;28;20406;-75
2021/10/30 08:45:16;;;;;;;16.42;11.23;;;15.60;71.90;;;;;;5032960;28;20026;-70
2021/10/30 08:47:45;;;;;;;18.73;11.20;;;15.70;71.00;;;;;;5033604;28;20113;-75
2021/10/30 08:50:11;;;;;;;16.88;10.82;;;15.80;70.80;;;;;;5048735;28;20155;-68
2021/10/30 08:52:38;;;;;;;16.67;11.27;;;15.90;70.80;;;;;;5052066;28;20021;-70
2021/10/30 08:55:08;;;;;;;15.73;10.90;;;15.90;70.40;;;;;;5052008;28;20045;-71
2021/10/30 08:57:35;;;;;;;19.83;11.63;;;16.00;70.30;;;;;;5052269;28;20108;-72
2021/10/30 09:00:19;;;;;;;17.17;10.27;;;16.00;70.00;;;;;;5052135;28;20035;-68
2021/10/30 09:02:52;;;;;;;;;;;16.20;70.20;;;;;;5052546;28;20029;-68
2021/10/30 09:05:23;;;;;;;17.07;11.57;;;16.30;69.30;;;;;;5052172;28;19911;-68
2021/10/30 09:07:57;;;;;;;18.05;10.63;;;16.30;69.60;;;;;;5051845;28;20129;-71
2021/10/30 09:10:27;;;;;;;22.75;12.23;;;16.40;70.50;;;;;;5051903;28;20033;-73
2021/10/30 09:12:55;;;;;;;15.98;10.75;;;16.50;69.20;;;;;;5055765;28;20508;-68
2021/10/30 09:15:31;;;;;;;14.95;11.13;;;16.60;68.80;;;;;;5055875;28;20053;-72
2021/10/30 09:17:58;;;;;;;15.50;10.90;;;16.70;68.90;;;;;;5056091;28;20056;-69
2021/10/30 09:20:36;;;;;;;16.90;10.77;;;16.70;68.90;;;;;;5055608;28;20025;-71
2021/10/30 09:23:07;;;;;;;21.00;11.90;;;16.80;69.60;;;;;;5055546;28;20040;-72
2021/10/30 09:25:33;;;;;;;17.85;10.95;;;17.00;68.60;;;;;;5055488;28;20029;-72
2021/10/30 09:28:01;;;;;;;16.42;10.43;;;17.10;68.10;;;;;;5055465;28;20128;-70
2021/10/30 09:30:37;;;;;;;14.95;10.55;;;17.10;67.70;;;;;;5055548;28;20442;-69
2021/10/30 09:33:05;;;;;;;15.65;11.55;;;17.20;68.00;;;;;;5037769;28;20456;-72
2021/10/30 09:35:45;;;;;;;15.68;10.50;;;17.30;67.40;;;;;;5055314;28;20090;-69
2021/10/30 09:38:33;;;;;;;15.57;10.25;;;17.40;67.20;;;;;;5054076;28;20021;-69
2021/10/30 09:41:04;;;;;;;18.38;11.43;;;17.50;67.10;;;;;;5054048;28;20446;-73
2021/10/30 09:43:30;;;;;;;18.45;10.65;;;17.70;66.50;;;;;;5055434;28;20056;-68
2021/10/30 09:46:05;;;;;;;18.20;10.98;;;17.80;66.50;;;;;;5055270;28;20104;-69
2021/10/30 09:48:39;;;;;;;18.42;11.45;;;17.80;66.10;;;;;;5054089;28;20033;-75
2021/10/30 09:51:05;;;;;;;18.77;10.73;;;17.90;66.00;;;;;;5055641;28;20446;-69
2021/10/30 09:53:40;;;;;;;18.20;10.75;;;18.00;65.80;;;;;;5053713;28;20055;-72
2021/10/30 09:56:11;;;;;;;18.08;10.27;;;18.10;65.80;;;;;;5055442;28;20032;-69
2021/10/30 09:58:41;;;;;;;18.40;11.50;;;18.20;65.50;;;;;;5055007;28;20024;-68
2021/10/30 10:01:13;;;;;;;17.75;11.30;;;18.30;65.50;;;;;;5054758;28;20028;-69
2021/10/30 10:03:43;;;;;;;16.88;11.63;;;18.30;66.30;;;;;;5054887;28;20055;-69
2021/10/30 10:06:14;;;;;;;14.95;10.18;;;18.50;66.30;;;;;;5054899;28;20035;-70
2021/10/30 10:08:44;;;;;;;19.85;12.32;;;18.50;66.00;;;;;;5055030;28;20485;-69
2021/10/30 10:11:12;;;;;;;17.13;11.55;;;18.60;65.80;;;;;;5054680;28;20025;-68
2021/10/30 10:13:40;;;;;;;19.67;11.50;;;18.70;65.60;;;;;;5054935;28;20036;-70
2021/10/30 10:16:18;;;;;;;19.63;12.00;;;18.80;65.50;;;;;;5054719;28;20049;-69
2021/10/30 10:18:54;;;;;;;20.10;12.73;;;18.80;65.60;;;;;;5054719;28;20176;-68
2021/10/30 10:21:27;;;;;;;15.85;11.43;;;19.00;67.00;;;;;;5053965;28;20077;-69
2021/10/30 10:23:56;;;;;;;19.35;12.68;;;19.00;67.40;;;;;;5054470;28;20057;-71
2021/10/30 10:26:53;;;;;;;20.48;13.93;;;19.10;67.10;;;;;;5054691;28;20024;-68
2021/10/30 10:29:46;;;;;;;22.38;13.65;;;19.20;67.10;;;;;;5054877;28;20382;-67
2021/10/30 10:32:20;;;;;;;19.00;13.85;;;19.30;67.20;;;;;;5054496;28;20029;-69
2021/10/30 10:34:47;;;;;;;19.35;12.65;;;19.40;67.60;;;;;;5053514;28;20454;-67
2021/10/30 10:37:17;;;;;;;22.02;13.80;;;19.50;68.10;;;;;;5054283;28;20017;-69
2021/10/30 10:40:05;;;;;;;23.33;13.63;;;19.50;67.50;;;;;;5054604;28;20477;-68
2021/10/30 10:42:43;;;;;;;22.45;14.48;;;19.60;68.80;;;;;;5054062;28;20430;-70
2021/10/30 10:45:17;;;;;;;18.65;13.88;;;19.70;68.10;;;;;;5054675;28;20083;-70
2021/10/30 10:47:44;;;;;;;17.92;12.43;;;19.80;68.30;;;;;;5054221;28;20051;-71
2021/10/30 10:50:13;;;;;;;17.38;11.98;;;19.80;68.40;;;;;;5054386;28;20103;-69
2021/10/30 10:52:44;;;;;;;20.05;12.93;;;19.80;68.00;;;;;;5054401;28;20033;-69
2021/10/30 10:55:10;;;;;;;22.05;14.45;;;19.90;67.80;;;;;;5053974;28;20024;-69
2021/10/30 10:57:47;;;;;;;20.25;13.95;;;20.00;67.60;;;;;;5054557;28;20111;-69
2021/10/30 11:00:15;;;;;;;20.33;14.55;;;20.10;67.90;;;;;;5054075;28;20047;-70
2021/10/30 11:02:51;;;;;;;16.60;12.73;;;20.10;67.20;;;;;;5054313;28;20036;-67
2021/10/30 11:05:23;;;;;;;17.38;13.18;;;20.10;66.70;;;;;;5054176;28;20032;-69
2021/10/30 11:07:49;;;;;;;18.23;12.85;;;20.10;66.20;;;;;;5052603;28;20036;-68
2021/10/30 11:10:19;;;;;;;15.63;11.73;;;20.20;67.20;;;;;;5052446;28;20457;-69
2021/10/30 11:13:05;;;;;;;19.80;11.90;;;20.20;67.50;;;;;;5052428;28;20024;-68
2021/10/30 11:15:53;;;;;;;16.20;11.18;;;20.30;64.80;;;;;;5053743;28;20115;-67
2021/10/30 11:18:29;;;;;;;19.15;11.57;;;20.40;64.70;;;;;;5053472;28;20025;-69
2021/10/30 11:21:15;;;;;;;16.30;11.43;;;20.40;66.00;;;;;;5053841;28;20029;-68
2021/10/30 11:23:46;;;;;;;18.00;11.73;;;20.50;66.10;;;;;;5052383;28;20114;-69
2021/10/30 11:26:30;;;;;;;15.18;11.30;;;20.60;65.90;;;;;;5053410;28;20020;-72
2021/10/30 11:29:03;;;;;;;;;;;20.60;65.90;;;;;;5052943;28;20082;-71
2021/10/30 11:31:30;;;;;;;16.50;12.63;;;20.70;63.10;;;;;;5053617;28;19909;-72
2021/10/30 11:34:03;;;;;;;22.95;11.95;;;20.80;65.10;;;;;;5052705;28;20059;-69
2021/10/30 11:36:33;;;;;;;14.90;11.20;;;20.80;64.80;;;;;;5039892;28;20024;-69
2021/10/30 11:39:00;;;;;;;15.68;11.73;;;20.90;63.00;;;;;;5034017;28;20029;-73
2021/10/30 11:41:28;;;;;;;18.40;11.10;;;21.00;65.30;;;;;;5033403;28;20018;-69
2021/10/30 11:44:06;;;;;;;17.55;11.85;;;21.00;64.30;;;;;;5032000;28;20037;-72
2021/10/30 11:46:32;;;;;;;16.85;11.43;;;21.00;61.50;;;;;;5033447;28;20475;-69
2021/10/30 11:49:00;;;;;;;18.83;11.55;;;21.10;63.50;;;;;;5033420;28;20037;-70
2021/10/30 11:51:31;;;;;;;17.48;10.75;;;21.20;62.90;;;;;;5032252;28;20484;-71
2021/10/30 11:54:01;;;;;;;16.92;11.77;;;21.20;61.00;;;;;;5032165;28;20103;-70
2021/10/30 11:56:29;;;;;;;21.05;10.80;;;21.30;60.30;;;;;;5033334;28;20033;-71
2021/10/30 11:59:04;;;;;;;20.25;9.63;;;21.30;61.80;;;;;;5032242;28;20051;-70
2021/10/30 12:01:32;;;;;;;14.43;9.48;;;21.40;61.00;;;;;;5033332;28;20027;-71
2021/10/30 12:04:21;;;;;;;15.02;9.82;;;21.40;60.60;;;;;;5032954;28;20026;-72
2021/10/30 12:07:00;;;;;;;20.25;10.45;;;21.40;58.50;;;;;;5033353;28;20068;-70
2021/10/30 12:09:40;;;;;;;16.27;9.23;;;21.50;60.20;;;;;;5047986;28;20454;-70
2021/10/30 12:12:30;;;;;;;14.15;9.10;;;21.50;58.40;;;;;;5052971;28;20432;-70
2021/10/30 12:14:57;;;;;;;24.40;9.45;;;21.60;59.60;;;;;;5046576;28;20403;-70
2021/10/30 12:17:25;;;;;;;13.25;8.70;;;21.70;59.30;;;;;;5046940;28;20069;-71
2021/10/30 12:20:13;;;;;;;13.68;8.82;;;21.70;59.40;;;;;;5052968;28;20108;-71
2021/10/30 12:22:41;;;;;;;16.98;10.18;;;21.70;58.70;;;;;;5051380;28;20037;-72
2021/10/30 12:25:13;;;;;;;16.67;10.35;;;21.80;59.10;;;;;;5052971;28;20029;-72
2021/10/30 12:27:57;;;;;;;19.13;9.80;;;21.80;57.90;;;;;;5051768;28;20036;-70
2021/10/30 12:30:26;;;;;;;17.30;10.93;;;21.90;57.60;;;;;;5034851;28;20029;-70
2021/10/30 12:32:53;;;;;;;16.00;9.43;;;21.90;58.80;;;;;;5053058;28;20033;-70
2021/10/30 12:35:21;;;;;;;14.77;9.63;;;22.00;58.30;;;;;;5051331;28;20071;-72